sensor_id;sensor_type;location;lat;lon;timestamp;P1;durP1;ratioP1;P2;durP2;ratioP2
45236;SDS011;30973;51.442;3.580;2023-06-26T00:01:01;17.13;;;5.75;;
45236;SDS011;30973;51.442;3.580;2023-06-26T00:03:28;17.40;;;5.60;;
45236;SDS011;30973;51.442;3.580;2023-06-26T00:05:55;16.73;;;5.43;;
45236;SDS011;30973;51.442;3.580;2023-06-26T00:08:27;11.60;;;5.10;;
45236;SDS011;30973;51.442;3.580;2023-06-26T00:10:54;10.88;;;4.35;;
45236;SDS011;30973;51.442;3.580;2023-06-26T00:13:21;16.98;;;4.78;;
45236;SDS011;30973;51.442;3.580;2023-06-26T00:15:48;13.13;;;4.85;;
45236;SDS011;30973;51.442;3.580;2023-06-26T00:18:15;19.25;;;5.68;;
45236;SDS011;30973;51.442;3.580;2023-06-26T00:20:41;16.40;;;5.35;;
45236;SDS011;30973;51.442;3.580;2023-06-26T00:23:08;17.88;;;5.53;;
45236;SDS011;30973;51.442;3.580;2023-06-26T00:25:34;16.75;;;5.00;;
45236;SDS011;30973;51.442;3.580;2023-06-26T00:28:01;17.25;;;5.95;;
45236;SDS011;30973;51.442;3.580;2023-06-26T00:30:28;13.90;;;5.50;;
45236;SDS011;30973;51.442;3.580;2023-06-26T00:32:56;16.60;;;5.28;;
45236;SDS011;30973;51.442;3.580;2023-06-26T00:35:23;16.00;;;5.10;;
45236;SDS011;30973;51.442;3.580;2023-06-26T00:37:50;15.98;;;5.53;;
45236;SDS011;30973;51.442;3.580;2023-06-26T00:40:16;16.00;;;5.57;;
45236;SDS011;30973;51.442;3.580;2023-06-26T00:42:43;23.80;;;6.53;;
45236;SDS011;30973;51.442;3.580;2023-06-26T00:45:09;15.95;;;5.35;;
45236;SDS011;30973;51.442;3.580;2023-06-26T00:47:36;16.80;;;5.60;;
45236;SDS011;30973;51.442;3.580;2023-06-26T00:50:03;19.75;;;5.57;;
45236;SDS011;30973;51.442;3.580;2023-06-26T00:52:31;18.02;;;5.50;;
45236;SDS011;30973;51.442;3.580;2023-06-26T00:54:58;17.30;;;5.05;;
45236;SDS011;30973;51.442;3.580;2023-06-26T00:57:25;19.40;;;5.47;;
45236;SDS011;30973;51.442;3.580;2023-06-26T00:59:52;16.88;;;6.03;;
45236;SDS011;30973;51.442;3.580;2023-06-26T01:02:20;18.77;;;6.03;;
45236;SDS011;30973;51.442;3.580;2023-06-26T01:04:49;15.25;;;5.20;;
45236;SDS011;30973;51.442;3.580;2023-06-26T01:07:16;17.90;;;5.60;;
45236;SDS011;30973;51.442;3.580;2023-06-26T01:09:48;16.50;;;5.93;;
45236;SDS011;30973;51.442;3.580;2023-06-26T01:12:15;17.08;;;5.72;;
45236;SDS011;30973;51.442;3.580;2023-06-26T01:14:42;17.08;;;6.32;;
45236;SDS011;30973;51.442;3.580;2023-06-26T01:17:09;17.42;;;5.43;;
45236;SDS011;30973;51.442;3.580;2023-06-26T01:19:40;19.77;;;6.15;;
45236;SDS011;30973;51.442;3.580;2023-06-26T01:22:23;17.60;;;5.70;;
45236;SDS011;30973;51.442;3.580;2023-06-26T01:24:56;20.38;;;5.97;;
45236;SDS011;30973;51.442;3.580;2023-06-26T01:27:27;18.90;;;6.18;;
45236;SDS011;30973;51.442;3.580;2023-06-26T01:29:54;18.02;;;5.78;;
45236;SDS011;30973;51.442;3.580;2023-06-26T01:32:22;17.27;;;5.72;;
45236;SDS011;30973;51.442;3.580;2023-06-26T01:34:49;18.08;;;5.40;;
45236;SDS011;30973;51.442;3.580;2023-06-26T01:37:16;17.75;;;5.15;;
45236;SDS011;30973;51.442;3.580;2023-06-26T01:39:43;16.50;;;5.90;;
45236;SDS011;30973;51.442;3.580;2023-06-26T01:42:10;15.68;;;5.10;;
45236;SDS011;30973;51.442;3.580;2023-06-26T01:44:37;20.00;;;6.15;;
45236;SDS011;30973;51.442;3.580;2023-06-26T01:47:05;22.60;;;5.57;;
45236;SDS011;30973;51.442;3.580;2023-06-26T01:49:49;19.80;;;5.63;;
45236;SDS011;30973;51.442;3.580;2023-06-26T01:52:25;20.15;;;5.10;;
45236;SDS011;30973;51.442;3.580;2023-06-26T01:57:29;20.60;;;6.00;;
45236;SDS011;30973;51.442;3.580;2023-06-26T01:59:57;21.73;;;5.97;;
45236;SDS011;30973;51.442;3.580;2023-06-26T02:02:25;23.45;;;6.05;;
45236;SDS011;30973;51.442;3.580;2023-06-26T02:04:52;16.83;;;4.82;;
45236;SDS011;30973;51.442;3.580;2023-06-26T02:07:19;17.95;;;4.90;;
45236;SDS011;30973;51.442;3.580;2023-06-26T02:09:45;20.60;;;4.80;;
45236;SDS011;30973;51.442;3.580;2023-06-26T02:12:12;21.13;;;5.70;;
45236;SDS011;30973;51.442;3.580;2023-06-26T02:14:39;17.73;;;5.13;;
45236;SDS011;30973;51.442;3.580;2023-06-26T02:17:05;15.88;;;5.30;;
45236;SDS011;30973;51.442;3.580;2023-06-26T02:19:33;21.70;;;5.32;;
45236;SDS011;30973;51.442;3.580;2023-06-26T02:22:00;16.83;;;4.72;;
45236;SDS011;30973;51.442;3.580;2023-06-26T02:24:27;20.05;;;5.18;;
45236;SDS011;30973;51.442;3.580;2023-06-26T02:26:57;16.13;;;4.57;;
45236;SDS011;30973;51.442;3.580;2023-06-26T02:29:24;17.58;;;4.75;;
45236;SDS011;30973;51.442;3.580;2023-06-26T02:31:50;17.63;;;4.88;;
45236;SDS011;30973;51.442;3.580;2023-06-26T02:34:17;13.25;;;3.90;;
45236;SDS011;30973;51.442;3.580;2023-06-26T02:36:43;17.15;;;4.38;;
45236;SDS011;30973;51.442;3.580;2023-06-26T02:39:10;15.45;;;3.95;;
45236;SDS011;30973;51.442;3.580;2023-06-26T02:41:38;15.85;;;4.05;;
45236;SDS011;30973;51.442;3.580;2023-06-26T02:44:04;13.27;;;3.80;;
45236;SDS011;30973;51.442;3.580;2023-06-26T02:46:32;15.38;;;3.78;;
45236;SDS011;30973;51.442;3.580;2023-06-26T02:48:59;12.50;;;3.20;;
45236;SDS011;30973;51.442;3.580;2023-06-26T02:51:26;13.20;;;3.55;;
45236;SDS011;30973;51.442;3.580;2023-06-26T02:53:54;8.70;;;2.80;;
45236;SDS011;30973;51.442;3.580;2023-06-26T02:56:21;8.60;;;2.78;;
45236;SDS011;30973;51.442;3.580;2023-06-26T02:58:47;10.05;;;2.58;;
45236;SDS011;30973;51.442;3.580;2023-06-26T03:01:14;12.23;;;2.70;;
45236;SDS011;30973;51.442;3.580;2023-06-26T03:03:43;13.38;;;2.53;;
45236;SDS011;30973;51.442;3.580;2023-06-26T03:06:14;8.05;;;2.03;;
45236;SDS011;30973;51.442;3.580;2023-06-26T03:08:42;10.50;;;2.58;;
45236;SDS011;30973;51.442;3.580;2023-06-26T03:11:08;8.80;;;2.22;;
45236;SDS011;30973;51.442;3.580;2023-06-26T03:13:37;8.23;;;1.88;;
45236;SDS011;30973;51.442;3.580;2023-06-26T03:16:03;8.80;;;2.03;;
45236;SDS011;30973;51.442;3.580;2023-06-26T03:18:30;9.27;;;2.33;;
45236;SDS011;30973;51.442;3.580;2023-06-26T03:20:57;11.15;;;2.03;;
45236;SDS011;30973;51.442;3.580;2023-06-26T03:23:24;10.52;;;2.28;;
45236;SDS011;30973;51.442;3.580;2023-06-26T03:25:51;7.03;;;2.55;;
45236;SDS011;30973;51.442;3.580;2023-06-26T03:28:24;9.18;;;2.10;;
45236;SDS011;30973;51.442;3.580;2023-06-26T03:30:51;9.93;;;2.33;;
45236;SDS011;30973;51.442;3.580;2023-06-26T03:33:18;12.93;;;2.30;;
45236;SDS011;30973;51.442;3.580;2023-06-26T03:35:45;7.22;;;1.83;;
45236;SDS011;30973;51.442;3.580;2023-06-26T03:38:13;6.93;;;2.03;;
45236;SDS011;30973;51.442;3.580;2023-06-26T03:40:41;8.98;;;2.08;;
45236;SDS011;30973;51.442;3.580;2023-06-26T03:43:08;8.35;;;1.85;;
45236;SDS011;30973;51.442;3.580;2023-06-26T03:45:52;9.02;;;2.10;;
45236;SDS011;30973;51.442;3.580;2023-06-26T03:48:19;6.47;;;1.83;;
45236;SDS011;30973;51.442;3.580;2023-06-26T03:50:46;11.32;;;2.30;;
45236;SDS011;30973;51.442;3.580;2023-06-26T03:53:13;7.82;;;2.10;;
45236;SDS011;30973;51.442;3.580;2023-06-26T03:55:39;9.27;;;2.28;;
45236;SDS011;30973;51.442;3.580;2023-06-26T03:58:06;9.48;;;2.40;;
45236;SDS011;30973;51.442;3.580;2023-06-26T04:00:33;12.65;;;2.88;;
45236;SDS011;30973;51.442;3.580;2023-06-26T04:03:00;9.93;;;2.20;;
45236;SDS011;30973;51.442;3.580;2023-06-26T04:05:26;7.93;;;2.00;;
45236;SDS011;30973;51.442;3.580;2023-06-26T04:07:53;12.52;;;2.58;;
45236;SDS011;30973;51.442;3.580;2023-06-26T04:10:21;9.23;;;2.08;;
45236;SDS011;30973;51.442;3.580;2023-06-26T04:12:48;9.85;;;2.45;;
45236;SDS011;30973;51.442;3.580;2023-06-26T04:15:14;11.80;;;2.13;;
45236;SDS011;30973;51.442;3.580;2023-06-26T04:17:41;13.00;;;2.60;;
45236;SDS011;30973;51.442;3.580;2023-06-26T04:20:08;11.75;;;2.40;;
45236;SDS011;30973;51.442;3.580;2023-06-26T04:22:35;9.85;;;2.40;;
45236;SDS011;30973;51.442;3.580;2023-06-26T04:25:02;9.68;;;2.20;;
45236;SDS011;30973;51.442;3.580;2023-06-26T04:27:29;8.88;;;2.08;;
45236;SDS011;30973;51.442;3.580;2023-06-26T04:29:56;12.30;;;2.33;;
45236;SDS011;30973;51.442;3.580;2023-06-26T04:32:23;11.55;;;2.22;;
45236;SDS011;30973;51.442;3.580;2023-06-26T04:34:49;10.45;;;2.13;;
45236;SDS011;30973;51.442;3.580;2023-06-26T04:37:16;7.22;;;2.20;;
45236;SDS011;30973;51.442;3.580;2023-06-26T04:39:43;13.10;;;2.78;;
45236;SDS011;30973;51.442;3.580;2023-06-26T04:42:10;8.45;;;1.90;;
45236;SDS011;30973;51.442;3.580;2023-06-26T04:44:38;8.93;;;2.22;;
45236;SDS011;30973;51.442;3.580;2023-06-26T04:47:07;7.93;;;2.10;;
45236;SDS011;30973;51.442;3.580;2023-06-26T04:49:34;8.35;;;2.10;;
45236;SDS011;30973;51.442;3.580;2023-06-26T04:52:04;6.90;;;2.10;;
45236;SDS011;30973;51.442;3.580;2023-06-26T04:54:31;9.98;;;1.92;;
45236;SDS011;30973;51.442;3.580;2023-06-26T04:56:57;12.35;;;2.15;;
45236;SDS011;30973;51.442;3.580;2023-06-26T04:59:24;10.10;;;1.70;;
45236;SDS011;30973;51.442;3.580;2023-06-26T05:01:50;8.77;;;1.98;;
45236;SDS011;30973;51.442;3.580;2023-06-26T05:04:17;6.57;;;1.80;;
45236;SDS011;30973;51.442;3.580;2023-06-26T05:06:44;5.68;;;1.67;;
45236;SDS011;30973;51.442;3.580;2023-06-26T05:09:10;7.85;;;2.20;;
45236;SDS011;30973;51.442;3.580;2023-06-26T05:11:37;6.88;;;1.80;;
45236;SDS011;30973;51.442;3.580;2023-06-26T05:14:04;6.88;;;1.65;;
45236;SDS011;30973;51.442;3.580;2023-06-26T05:16:33;4.53;;;1.60;;
45236;SDS011;30973;51.442;3.580;2023-06-26T05:19:01;7.07;;;1.60;;
45236;SDS011;30973;51.442;3.580;2023-06-26T05:21:28;7.60;;;1.80;;
45236;SDS011;30973;51.442;3.580;2023-06-26T05:23:55;4.13;;;1.50;;
45236;SDS011;30973;51.442;3.580;2023-06-26T05:26:22;5.40;;;1.80;;
45236;SDS011;30973;51.442;3.580;2023-06-26T05:28:49;5.95;;;1.52;;
45236;SDS011;30973;51.442;3.580;2023-06-26T05:31:16;8.93;;;1.65;;
45236;SDS011;30973;51.442;3.580;2023-06-26T05:33:43;7.25;;;1.25;;
45236;SDS011;30973;51.442;3.580;2023-06-26T05:36:10;6.32;;;1.30;;
45236;SDS011;30973;51.442;3.580;2023-06-26T05:38:38;4.82;;;1.40;;
45236;SDS011;30973;51.442;3.580;2023-06-26T05:41:05;6.63;;;1.35;;
45236;SDS011;30973;51.442;3.580;2023-06-26T05:43:31;5.50;;;1.45;;
45236;SDS011;30973;51.442;3.580;2023-06-26T05:45:58;7.20;;;1.23;;
45236;SDS011;30973;51.442;3.580;2023-06-26T05:48:24;7.82;;;2.17;;
45236;SDS011;30973;51.442;3.580;2023-06-26T05:50:51;5.45;;;1.30;;
45236;SDS011;30973;51.442;3.580;2023-06-26T05:53:18;5.70;;;1.30;;
45236;SDS011;30973;51.442;3.580;2023-06-26T05:55:45;6.22;;;1.42;;
45236;SDS011;30973;51.442;3.580;2023-06-26T05:58:11;4.95;;;1.33;;
45236;SDS011;30973;51.442;3.580;2023-06-26T06:00:41;4.97;;;1.35;;
45236;SDS011;30973;51.442;3.580;2023-06-26T06:03:09;5.20;;;1.30;;
45236;SDS011;30973;51.442;3.580;2023-06-26T06:05:37;5.13;;;1.20;;
45236;SDS011;30973;51.442;3.580;2023-06-26T06:08:03;4.75;;;1.30;;
45236;SDS011;30973;51.442;3.580;2023-06-26T06:10:30;7.10;;;1.70;;
45236;SDS011;30973;51.442;3.580;2023-06-26T06:12:56;6.72;;;1.40;;
45236;SDS011;30973;51.442;3.580;2023-06-26T06:15:23;6.05;;;1.88;;
45236;SDS011;30973;51.442;3.580;2023-06-26T06:17:50;6.75;;;1.80;;
45236;SDS011;30973;51.442;3.580;2023-06-26T06:20:17;10.48;;;1.85;;
45236;SDS011;30973;51.442;3.580;2023-06-26T06:22:45;5.28;;;1.70;;
45236;SDS011;30973;51.442;3.580;2023-06-26T06:25:12;11.73;;;1.92;;
45236;SDS011;30973;51.442;3.580;2023-06-26T06:27:39;5.05;;;1.75;;
45236;SDS011;30973;51.442;3.580;2023-06-26T06:30:06;8.50;;;1.50;;
45236;SDS011;30973;51.442;3.580;2023-06-26T06:32:34;7.18;;;2.00;;
45236;SDS011;30973;51.442;3.580;2023-06-26T06:35:01;5.88;;;1.75;;
45236;SDS011;30973;51.442;3.580;2023-06-26T06:37:38;10.82;;;1.98;;
45236;SDS011;30973;51.442;3.580;2023-06-26T06:40:05;5.50;;;1.63;;
45236;SDS011;30973;51.442;3.580;2023-06-26T06:42:32;6.85;;;1.77;;
45236;SDS011;30973;51.442;3.580;2023-06-26T06:45:00;9.05;;;1.95;;
45236;SDS011;30973;51.442;3.580;2023-06-26T06:47:27;6.90;;;1.83;;
45236;SDS011;30973;51.442;3.580;2023-06-26T06:49:54;9.23;;;1.95;;
45236;SDS011;30973;51.442;3.580;2023-06-26T06:52:20;7.35;;;1.60;;
45236;SDS011;30973;51.442;3.580;2023-06-26T06:54:50;3.75;;;1.38;;
45236;SDS011;30973;51.442;3.580;2023-06-26T06:57:17;7.38;;;1.60;;
45236;SDS011;30973;51.442;3.580;2023-06-26T06:59:44;5.60;;;1.92;;
45236;SDS011;30973;51.442;3.580;2023-06-26T07:02:10;4.10;;;1.50;;
45236;SDS011;30973;51.442;3.580;2023-06-26T07:04:37;6.30;;;1.80;;
45236;SDS011;30973;51.442;3.580;2023-06-26T07:07:03;5.68;;;1.50;;
45236;SDS011;30973;51.442;3.580;2023-06-26T07:09:30;7.88;;;2.00;;
45236;SDS011;30973;51.442;3.580;2023-06-26T07:11:57;4.70;;;1.60;;
45236;SDS011;30973;51.442;3.580;2023-06-26T07:14:24;7.82;;;1.85;;
45236;SDS011;30973;51.442;3.580;2023-06-26T07:16:50;6.00;;;1.60;;
45236;SDS011;30973;51.442;3.580;2023-06-26T07:19:17;6.10;;;1.77;;
45236;SDS011;30973;51.442;3.580;2023-06-26T07:21:44;6.03;;;1.60;;
45236;SDS011;30973;51.442;3.580;2023-06-26T07:24:12;5.13;;;1.55;;
45236;SDS011;30973;51.442;3.580;2023-06-26T07:26:39;5.93;;;1.88;;
45236;SDS011;30973;51.442;3.580;2023-06-26T07:29:12;8.15;;;2.15;;
45236;SDS011;30973;51.442;3.580;2023-06-26T07:31:38;5.88;;;1.80;;
45236;SDS011;30973;51.442;3.580;2023-06-26T07:34:05;4.78;;;1.63;;
45236;SDS011;30973;51.442;3.580;2023-06-26T07:36:31;6.18;;;1.73;;
45236;SDS011;30973;51.442;3.580;2023-06-26T07:38:58;6.03;;;2.15;;
45236;SDS011;30973;51.442;3.580;2023-06-26T07:41:25;6.40;;;1.80;;
45236;SDS011;30973;51.442;3.580;2023-06-26T07:43:51;7.25;;;2.33;;
45236;SDS011;30973;51.442;3.580;2023-06-26T07:46:18;5.22;;;1.90;;
45236;SDS011;30973;51.442;3.580;2023-06-26T07:48:44;3.83;;;1.70;;
45236;SDS011;30973;51.442;3.580;2023-06-26T07:51:11;6.28;;;1.90;;
45236;SDS011;30973;51.442;3.580;2023-06-26T07:53:40;7.25;;;1.95;;
45236;SDS011;30973;51.442;3.580;2023-06-26T07:56:06;6.25;;;1.55;;
45236;SDS011;30973;51.442;3.580;2023-06-26T07:58:33;6.80;;;1.70;;
45236;SDS011;30973;51.442;3.580;2023-06-26T08:00:59;6.05;;;2.20;;
45236;SDS011;30973;51.442;3.580;2023-06-26T08:03:26;5.95;;;2.00;;
45236;SDS011;30973;51.442;3.580;2023-06-26T08:06:01;4.40;;;1.80;;
45236;SDS011;30973;51.442;3.580;2023-06-26T08:08:27;6.38;;;1.95;;
45236;SDS011;30973;51.442;3.580;2023-06-26T08:10:54;6.38;;;2.17;;
45236;SDS011;30973;51.442;3.580;2023-06-26T08:13:20;7.85;;;1.95;;
45236;SDS011;30973;51.442;3.580;2023-06-26T08:15:47;5.05;;;2.00;;
45236;SDS011;30973;51.442;3.580;2023-06-26T08:18:13;5.13;;;1.85;;
45236;SDS011;30973;51.442;3.580;2023-06-26T08:20:40;7.93;;;1.63;;
45236;SDS011;30973;51.442;3.580;2023-06-26T08:23:07;9.00;;;2.00;;
45236;SDS011;30973;51.442;3.580;2023-06-26T08:25:33;10.07;;;1.90;;
45236;SDS011;30973;51.442;3.580;2023-06-26T08:28:00;7.40;;;2.20;;
45236;SDS011;30973;51.442;3.580;2023-06-26T08:30:26;5.53;;;1.75;;
45236;SDS011;30973;51.442;3.580;2023-06-26T08:32:55;9.77;;;2.13;;
45236;SDS011;30973;51.442;3.580;2023-06-26T08:35:21;8.20;;;1.90;;
45236;SDS011;30973;51.442;3.580;2023-06-26T08:37:48;8.73;;;2.15;;
45236;SDS011;30973;51.442;3.580;2023-06-26T08:40:18;8.10;;;2.17;;
45236;SDS011;30973;51.442;3.580;2023-06-26T08:42:47;6.00;;;2.15;;
45236;SDS011;30973;51.442;3.580;2023-06-26T08:45:19;5.53;;;1.90;;
45236;SDS011;30973;51.442;3.580;2023-06-26T08:47:46;4.80;;;1.90;;
45236;SDS011;30973;51.442;3.580;2023-06-26T08:50:14;5.97;;;1.98;;
45236;SDS011;30973;51.442;3.580;2023-06-26T08:52:46;7.40;;;2.60;;
45236;SDS011;30973;51.442;3.580;2023-06-26T08:55:15;7.95;;;2.05;;
45236;SDS011;30973;51.442;3.580;2023-06-26T08:57:42;7.25;;;2.08;;
45236;SDS011;30973;51.442;3.580;2023-06-26T09:00:13;8.43;;;2.42;;
45236;SDS011;30973;51.442;3.580;2023-06-26T09:02:41;8.88;;;2.13;;
45236;SDS011;30973;51.442;3.580;2023-06-26T09:05:11;6.10;;;1.80;;
45236;SDS011;30973;51.442;3.580;2023-06-26T09:07:37;8.85;;;2.15;;
45236;SDS011;30973;51.442;3.580;2023-06-26T09:10:04;7.50;;;2.15;;
45236;SDS011;30973;51.442;3.580;2023-06-26T09:12:31;9.38;;;2.67;;
45236;SDS011;30973;51.442;3.580;2023-06-26T09:14:58;7.25;;;2.00;;
45236;SDS011;30973;51.442;3.580;2023-06-26T09:17:29;5.47;;;2.03;;
45236;SDS011;30973;51.442;3.580;2023-06-26T09:19:56;5.68;;;2.05;;
45236;SDS011;30973;51.442;3.580;2023-06-26T09:22:23;5.53;;;1.67;;
45236;SDS011;30973;51.442;3.580;2023-06-26T09:24:49;5.43;;;2.05;;
45236;SDS011;30973;51.442;3.580;2023-06-26T09:27:16;6.47;;;1.90;;
45236;SDS011;30973;51.442;3.580;2023-06-26T09:29:45;9.32;;;2.22;;
45236;SDS011;30973;51.442;3.580;2023-06-26T09:32:12;8.15;;;2.00;;
45236;SDS011;30973;51.442;3.580;2023-06-26T09:34:40;6.95;;;2.00;;
45236;SDS011;30973;51.442;3.580;2023-06-26T09:37:08;6.72;;;2.08;;
45236;SDS011;30973;51.442;3.580;2023-06-26T09:39:34;10.02;;;2.38;;
45236;SDS011;30973;51.442;3.580;2023-06-26T09:42:01;7.70;;;2.60;;
45236;SDS011;30973;51.442;3.580;2023-06-26T09:44:33;7.05;;;1.85;;
45236;SDS011;30973;51.442;3.580;2023-06-26T09:47:00;7.10;;;2.00;;
45236;SDS011;30973;51.442;3.580;2023-06-26T09:49:28;7.80;;;2.10;;
45236;SDS011;30973;51.442;3.580;2023-06-26T09:51:55;7.05;;;1.83;;
45236;SDS011;30973;51.442;3.580;2023-06-26T09:54:21;7.85;;;1.88;;
45236;SDS011;30973;51.442;3.580;2023-06-26T09:56:49;8.18;;;2.05;;
45236;SDS011;30973;51.442;3.580;2023-06-26T09:59:15;7.38;;;2.10;;
45236;SDS011;30973;51.442;3.580;2023-06-26T10:01:43;5.20;;;1.80;;
45236;SDS011;30973;51.442;3.580;2023-06-26T10:04:11;11.40;;;2.35;;
45236;SDS011;30973;51.442;3.580;2023-06-26T10:06:42;7.82;;;2.42;;
45236;SDS011;30973;51.442;3.580;2023-06-26T10:09:10;6.07;;;2.10;;
45236;SDS011;30973;51.442;3.580;2023-06-26T10:11:38;4.80;;;2.17;;
45236;SDS011;30973;51.442;3.580;2023-06-26T10:14:07;4.97;;;1.90;;
45236;SDS011;30973;51.442;3.580;2023-06-26T10:16:43;8.45;;;2.00;;
45236;SDS011;30973;51.442;3.580;2023-06-26T10:19:10;6.85;;;2.00;;
45236;SDS011;30973;51.442;3.580;2023-06-26T10:21:39;6.57;;;1.95;;
45236;SDS011;30973;51.442;3.580;2023-06-26T10:24:06;6.97;;;2.00;;
45236;SDS011;30973;51.442;3.580;2023-06-26T10:26:34;6.60;;;1.80;;
45236;SDS011;30973;51.442;3.580;2023-06-26T10:29:01;6.15;;;2.13;;
45236;SDS011;30973;51.442;3.580;2023-06-26T10:31:29;6.80;;;1.92;;
45236;SDS011;30973;51.442;3.580;2023-06-26T10:33:57;7.30;;;2.30;;
45236;SDS011;30973;51.442;3.580;2023-06-26T10:36:27;8.77;;;2.50;;
45236;SDS011;30973;51.442;3.580;2023-06-26T10:38:55;9.57;;;2.35;;
45236;SDS011;30973;51.442;3.580;2023-06-26T10:41:22;7.22;;;2.38;;
45236;SDS011;30973;51.442;3.580;2023-06-26T10:46:28;10.77;;;2.70;;
45236;SDS011;30973;51.442;3.580;2023-06-26T10:48:59;7.20;;;2.60;;
45236;SDS011;30973;51.442;3.580;2023-06-26T10:51:26;8.18;;;2.92;;
45236;SDS011;30973;51.442;3.580;2023-06-26T10:53:54;8.68;;;2.30;;
45236;SDS011;30973;51.442;3.580;2023-06-26T10:56:21;6.93;;;2.17;;
45236;SDS011;30973;51.442;3.580;2023-06-26T10:58:48;6.60;;;2.28;;
45236;SDS011;30973;51.442;3.580;2023-06-26T11:01:16;6.97;;;1.95;;
45236;SDS011;30973;51.442;3.580;2023-06-26T11:03:44;6.60;;;2.20;;
45236;SDS011;30973;51.442;3.580;2023-06-26T11:06:16;6.63;;;2.30;;
45236;SDS011;30973;51.442;3.580;2023-06-26T11:08:44;8.38;;;2.33;;
45236;SDS011;30973;51.442;3.580;2023-06-26T11:11:10;8.75;;;2.53;;
45236;SDS011;30973;51.442;3.580;2023-06-26T11:13:37;7.45;;;2.67;;
45236;SDS011;30973;51.442;3.580;2023-06-26T11:16:03;10.32;;;2.50;;
45236;SDS011;30973;51.442;3.580;2023-06-26T11:18:32;9.50;;;2.60;;
45236;SDS011;30973;51.442;3.580;2023-06-26T11:21:05;8.20;;;2.28;;
45236;SDS011;30973;51.442;3.580;2023-06-26T11:23:32;6.82;;;2.42;;
45236;SDS011;30973;51.442;3.580;2023-06-26T11:26:18;5.82;;;2.10;;
45236;SDS011;30973;51.442;3.580;2023-06-26T11:28:51;7.22;;;2.22;;
45236;SDS011;30973;51.442;3.580;2023-06-26T11:31:27;6.35;;;2.20;;
45236;SDS011;30973;51.442;3.580;2023-06-26T11:34:00;6.72;;;2.17;;
45236;SDS011;30973;51.442;3.580;2023-06-26T11:36:27;5.43;;;2.00;;
45236;SDS011;30973;51.442;3.580;2023-06-26T11:38:54;6.18;;;2.22;;
45236;SDS011;30973;51.442;3.580;2023-06-26T11:41:21;9.25;;;2.38;;
45236;SDS011;30973;51.442;3.580;2023-06-26T11:43:48;7.53;;;2.25;;
45236;SDS011;30973;51.442;3.580;2023-06-26T11:46:16;8.25;;;2.38;;
45236;SDS011;30973;51.442;3.580;2023-06-26T11:48:43;6.57;;;2.35;;
45236;SDS011;30973;51.442;3.580;2023-06-26T11:51:12;6.95;;;2.42;;
45236;SDS011;30973;51.442;3.580;2023-06-26T11:53:42;5.43;;;1.90;;
45236;SDS011;30973;51.442;3.580;2023-06-26T11:56:09;9.00;;;2.38;;
45236;SDS011;30973;51.442;3.580;2023-06-26T11:58:37;8.32;;;2.65;;
45236;SDS011;30973;51.442;3.580;2023-06-26T12:01:18;5.82;;;1.98;;
45236;SDS011;30973;51.442;3.580;2023-06-26T12:03:45;5.75;;;2.10;;
45236;SDS011;30973;51.442;3.580;2023-06-26T12:06:12;7.13;;;2.40;;
45236;SDS011;30973;51.442;3.580;2023-06-26T12:08:38;6.88;;;2.42;;
45236;SDS011;30973;51.442;3.580;2023-06-26T12:11:05;4.72;;;2.10;;
45236;SDS011;30973;51.442;3.580;2023-06-26T12:13:32;8.68;;;2.30;;
45236;SDS011;30973;51.442;3.580;2023-06-26T12:15:59;5.72;;;2.10;;
45236;SDS011;30973;51.442;3.580;2023-06-26T12:18:32;5.57;;;2.30;;
45236;SDS011;30973;51.442;3.580;2023-06-26T12:21:01;8.13;;;2.15;;
45236;SDS011;30973;51.442;3.580;2023-06-26T12:23:32;6.13;;;2.03;;
45236;SDS011;30973;51.442;3.580;2023-06-26T12:26:16;6.38;;;2.60;;
45236;SDS011;30973;51.442;3.580;2023-06-26T12:28:44;5.00;;;2.13;;
45236;SDS011;30973;51.442;3.580;2023-06-26T12:31:14;7.45;;;1.98;;
45236;SDS011;30973;51.442;3.580;2023-06-26T12:33:42;10.05;;;2.80;;
45236;SDS011;30973;51.442;3.580;2023-06-26T12:36:12;8.50;;;2.67;;
45236;SDS011;30973;51.442;3.580;2023-06-26T12:38:39;8.55;;;2.22;;
45236;SDS011;30973;51.442;3.580;2023-06-26T12:41:05;8.27;;;2.42;;
45236;SDS011;30973;51.442;3.580;2023-06-26T12:43:38;6.70;;;2.05;;
45236;SDS011;30973;51.442;3.580;2023-06-26T12:46:04;7.60;;;2.53;;
45236;SDS011;30973;51.442;3.580;2023-06-26T12:48:38;7.70;;;2.50;;
45236;SDS011;30973;51.442;3.580;2023-06-26T12:51:10;6.47;;;2.40;;
45236;SDS011;30973;51.442;3.580;2023-06-26T12:53:37;6.50;;;2.55;;
45236;SDS011;30973;51.442;3.580;2023-06-26T12:56:06;8.40;;;2.13;;
45236;SDS011;30973;51.442;3.580;2023-06-26T12:58:34;5.40;;;2.28;;
45236;SDS011;30973;51.442;3.580;2023-06-26T13:01:04;9.20;;;2.78;;
45236;SDS011;30973;51.442;3.580;2023-06-26T13:03:31;9.65;;;2.22;;
45236;SDS011;30973;51.442;3.580;2023-06-26T13:06:01;5.78;;;2.10;;
45236;SDS011;30973;51.442;3.580;2023-06-26T13:08:27;5.80;;;2.17;;
45236;SDS011;30973;51.442;3.580;2023-06-26T13:10:55;5.03;;;2.10;;
45236;SDS011;30973;51.442;3.580;2023-06-26T13:13:22;7.72;;;2.40;;
45236;SDS011;30973;51.442;3.580;2023-06-26T13:15:48;6.25;;;2.17;;
45236;SDS011;30973;51.442;3.580;2023-06-26T13:18:15;7.05;;;2.50;;
45236;SDS011;30973;51.442;3.580;2023-06-26T13:20:41;4.88;;;2.13;;
45236;SDS011;30973;51.442;3.580;2023-06-26T13:23:08;8.85;;;2.55;;
45236;SDS011;30973;51.442;3.580;2023-06-26T13:25:34;7.55;;;2.63;;
45236;SDS011;30973;51.442;3.580;2023-06-26T13:28:01;11.63;;;2.35;;
45236;SDS011;30973;51.442;3.580;2023-06-26T13:30:27;7.20;;;2.22;;
45236;SDS011;30973;51.442;3.580;2023-06-26T13:32:54;8.38;;;2.40;;
45236;SDS011;30973;51.442;3.580;2023-06-26T13:35:21;6.38;;;2.42;;
45236;SDS011;30973;51.442;3.580;2023-06-26T13:37:47;7.72;;;2.58;;
45236;SDS011;30973;51.442;3.580;2023-06-26T13:40:14;7.15;;;2.60;;
45236;SDS011;30973;51.442;3.580;2023-06-26T13:42:40;10.88;;;2.65;;
45236;SDS011;30973;51.442;3.580;2023-06-26T13:45:08;6.20;;;2.33;;
45236;SDS011;30973;51.442;3.580;2023-06-26T13:47:52;7.32;;;2.63;;
45236;SDS011;30973;51.442;3.580;2023-06-26T13:50:19;10.77;;;2.58;;
45236;SDS011;30973;51.442;3.580;2023-06-26T13:52:45;10.07;;;2.50;;
45236;SDS011;30973;51.442;3.580;2023-06-26T13:55:12;6.88;;;2.20;;
45236;SDS011;30973;51.442;3.580;2023-06-26T13:57:38;16.67;;;3.17;;
45236;SDS011;30973;51.442;3.580;2023-06-26T14:00:08;41.08;;;5.90;;
45236;SDS011;30973;51.442;3.580;2023-06-26T14:02:37;8.38;;;2.72;;
45236;SDS011;30973;51.442;3.580;2023-06-26T14:05:04;11.25;;;2.78;;
45236;SDS011;30973;51.442;3.580;2023-06-26T14:07:31;6.50;;;2.15;;
45236;SDS011;30973;51.442;3.580;2023-06-26T14:09:58;5.95;;;2.10;;
45236;SDS011;30973;51.442;3.580;2023-06-26T14:12:24;6.85;;;1.98;;
45236;SDS011;30973;51.442;3.580;2023-06-26T14:14:51;9.50;;;2.75;;
45236;SDS011;30973;51.442;3.580;2023-06-26T14:17:18;5.95;;;2.05;;
45236;SDS011;30973;51.442;3.580;2023-06-26T14:19:44;11.80;;;2.35;;
45236;SDS011;30973;51.442;3.580;2023-06-26T14:22:12;84.03;;;11.13;;
45236;SDS011;30973;51.442;3.580;2023-06-26T14:24:39;71.18;;;10.57;;
45236;SDS011;30973;51.442;3.580;2023-06-26T14:27:06;10.68;;;2.75;;
45236;SDS011;30973;51.442;3.580;2023-06-26T14:29:32;11.80;;;2.67;;
45236;SDS011;30973;51.442;3.580;2023-06-26T14:31:59;6.25;;;2.15;;
45236;SDS011;30973;51.442;3.580;2023-06-26T14:34:25;6.13;;;1.90;;
45236;SDS011;30973;51.442;3.580;2023-06-26T14:36:52;5.25;;;1.90;;
45236;SDS011;30973;51.442;3.580;2023-06-26T14:39:19;7.30;;;2.03;;
45236;SDS011;30973;51.442;3.580;2023-06-26T14:41:46;6.25;;;2.50;;
45236;SDS011;30973;51.442;3.580;2023-06-26T14:44:14;7.15;;;2.60;;
45236;SDS011;30973;51.442;3.580;2023-06-26T14:46:41;6.50;;;2.35;;
45236;SDS011;30973;51.442;3.580;2023-06-26T14:49:08;9.07;;;2.47;;
45236;SDS011;30973;51.442;3.580;2023-06-26T14:51:34;4.78;;;2.10;;